Time;durP1;ratioP1;P1;durP2;ratioP2;P2;SDS_P1;SDS_P2;PMS_P1;PMS_P2;Temp;Humidity;BMP_temperature;BMP_pressure;BME280_temperature;BME280_humidity;BME280_pressure;Samples;Min_cycle;Max_cycle;Signal;HPM_P1;HPM_P2
2022/01/23 00:00:31;;;;;;;;;;;;;;;-0.24;49.61;100909.16;4446051;32;32547;-79
2022/01/23 00:02:49;;;;;;;;;;;;;;;-0.36;50.31;100915.66;4457018;32;34015;-79
2022/01/23 00:05:19;;;;;;;;;;;;;;;-0.52;50.95;100919.66;4457098;32;34909;-79
2022/01/23 00:07:46;;;;;;;;;;;;;;;-0.50;50.58;100922.22;4445818;32;34666;-79
2022/01/23 00:10:15;;;;;;;;;;;;;;;-0.59;50.61;100928.56;4458640;32;32537;-79
2022/01/23 00:12:51;;;;;;;;;;;;;;;-0.51;50.37;100930.94;4458020;32;34139;-79
2022/01/23 00:18:06;;;;;;;;;;;;;;;-0.55;50.52;100935.44;4460130;32;33145;-79
2022/01/23 00:20:33;;;;;;;;;;;;;;;-0.37;50.14;100932.25;4447507;32;31676;-78
2022/01/23 00:23:12;;;;;;;;;;;;;;;-0.44;50.11;100932.47;4460968;32;34152;-79
2022/01/23 00:30:20;;;;;;;;;;;;;;;-0.29;49.33;100939.84;4475886;32;34444;-79
2022/01/23 00:31:24;;;;;;;;;;;;;;;-0.26;49.16;100934.50;4458852;32;33364;-79
2022/01/23 00:33:54;;;;;;;;;;;;;;;-0.21;48.88;100932.59;4445849;32;31811;-79
2022/01/23 00:36:25;;;;;;;;;;;;;;;-0.33;49.03;100938.19;4448168;32;34522;-79
2022/01/23 00:38:57;;;;;;;;;;;;;;;0.02;48.01;100937.00;4445210;32;34224;-79
2022/01/23 00:41:24;;;;;;;;;;;;;;;-0.38;48.83;100932.28;4444921;32;32068;-80
2022/01/23 00:43:53;;;;;;;;;;;;;;;-0.50;49.46;100936.13;4448507;32;35087;-79
2022/01/23 00:46:32;;;;;;;;;;;;;;;-0.52;49.73;100937.94;4465305;32;34294;-79
2022/01/23 00:51:32;;;;;;;;;;;;;;;-0.66;49.83;100929.66;4460278;32;32350;-80
2022/01/23 00:54:01;;;;;;;;;;;;;;;-0.82;50.18;100933.66;4458400;32;33807;-80
2022/01/23 00:56:28;;;;;;;;;;;;;;;-0.78;50.47;100937.88;4458726;32;34871;-80
2022/01/23 00:58:56;;;;;;;;;;;;;;;-0.91;50.89;100936.56;4433284;32;33980;-79
2022/01/23 01:01:25;;;;;;;;;;;;;;;-0.91;51.05;100943.53;4460848;32;32347;-78
2022/01/23 01:03:53;;;;;;;;;;;;;;;-1.17;51.72;100943.41;4446397;32;34563;-79
2022/01/23 01:06:20;;;;;;;;;;;;;;;-1.24;51.67;100932.28;4459408;32;35134;-80
2022/01/23 01:08:50;;;;;;;;;;;;;;;-1.08;51.06;100936.19;4459373;32;33758;-79
2022/01/23 01:16:58;;;;;;;;;;;;;;;-1.00;51.00;100926.38;4465060;32;34861;-80
2022/01/23 01:32:00;;;;;;;;;;;;;;;-1.25;52.33;100912.31;4462425;32;34453;-79
2022/01/23 01:38:48;;;;;;;;;;;;;;;-1.54;53.38;100914.03;4460614;32;33965;-79
2022/01/23 01:41:20;;;;;;;;;;;;;;;-1.52;53.71;100915.69;4460374;32;34104;-79
2022/01/23 01:43:49;;;;;;;;;;;;;;;-1.79;54.49;100920.81;4458042;32;32596;-79
2022/01/23 01:46:17;;;;;;;;;;;;;;;-1.88;54.30;100918.47;4458055;32;34099;-79
2022/01/23 01:48:45;;;;;;;;;;;;;;;-1.84;54.07;100920.94;4418844;32;36425;-78
2022/01/23 01:51:16;;;;;;;;;;;;;;;-1.54;53.05;100919.25;4470955;32;34943;-80
2022/01/23 01:53:51;;;;;;;;;;;;;;;-1.43;52.77;100930.28;4460099;32;32538;-81
2022/01/23 01:56:20;;;;;;;;;;;;;;;-1.80;53.87;100937.38;4465618;32;34544;-80
2022/01/23 02:09:17;;;;;;;;;;;;;;;-1.09;51.35;100925.78;4447477;32;33355;-79
2022/01/23 02:15:13;;;;;;;;;;;;;;;-1.52;52.66;100917.47;4457639;32;33601;-79
2022/01/23 02:55:35;;;;;;;;;;;;;;;-0.39;50.93;100912.28;4422514;32;35806;-80
2022/01/23 02:58:05;;;;;;;;;;;;;;;-0.55;51.42;100908.44;4447131;32;32271;-80
2022/01/23 03:00:47;;;;;;;;;;;;;;;-0.72;51.67;100911.59;4459101;32;34585;-79
2022/01/23 03:03:23;;;;;;;;;;;;;;;-0.88;52.58;100909.47;4458351;32;35927;-79
2022/01/23 03:09:09;;;;;;;;;;;;;;;-0.66;52.17;100903.53;4428654;32;33351;-80
2022/01/23 03:14:15;;;;;;;;;;;;;;;-0.45;52.01;100907.25;4461042;32;35369;-79
2022/01/23 03:24:40;;;;;;;;;;;;;;;-0.62;53.09;100907.78;4459573;32;35310;-80
2022/01/23 03:29:52;;;;;;;;;;;;;;;-0.51;53.13;100907.41;4472346;32;33304;-80
2022/01/23 03:32:42;;;;;;;;;;;;;;;-0.11;52.07;100916.53;4447501;32;31896;-81
2022/01/23 03:35:10;;;;;;;;;;;;;;;-0.38;52.51;100920.06;4451069;32;35081;-79
2022/01/23 03:37:38;;;;;;;;;;;;;;;-0.09;51.79;100921.72;4435565;32;33681;-80
2022/01/23 03:40:06;;;;;;;;;;;;;;;-0.27;52.37;100917.09;4447231;32;31206;-78
2022/01/23 03:42:37;;;;;;;;;;;;;;;0.00;51.88;100917.91;4466050;32;33808;-79
2022/01/23 03:50:39;;;;;;;;;;;;;;;-0.19;52.25;100915.94;4461035;32;33385;-80
2022/01/23 03:53:09;;;;;;;;;;;;;;;-0.03;52.35;100904.94;4458400;32;34374;-79
2022/01/23 03:55:36;;;;;;;;;;;;;;;-0.17;52.56;100903.69;4464567;32;36024;-80
2022/01/23 03:58:04;;;;;;;;;;;;;;;-0.03;52.07;100898.84;4462094;32;35081;-80
2022/01/23 04:00:32;;;;;;;;;;;;;;;0.03;51.86;100901.25;4458853;32;32561;-80
2022/01/23 04:03:00;;;;;;;;;;;;;;;-0.17;52.69;100895.84;4466255;32;33694;-80
2022/01/23 04:05:27;;;;;;;;;;;;;;;-0.22;52.77;100899.50;4448099;32;34240;-79
2022/01/23 04:07:56;;;;;;;;;;;;;;;0.06;51.82;100906.38;4458736;32;33500;-79
2022/01/23 04:10:27;;;;;;;;;;;;;;;0.14;52.00;100905.22;4446674;32;32387;-80
2022/01/23 04:45:35;;;;;;;;;;;;;;;0.53;50.92;100922.13;4461305;32;34121;-80
2022/01/23 05:06:58;;;;;;;;;;;;;;;-0.06;52.22;100904.19;4475394;32;34850;-80
2022/01/23 05:09:29;;;;;;;;;;;;;;;-0.03;52.17;100904.06;4435659;32;34491;-81
2022/01/23 05:12:00;;;;;;;;;;;;;;;0.25;51.49;100903.06;4457529;32;35395;-80
2022/01/23 05:14:31;;;;;;;;;;;;;;;0.38;50.80;100906.12;4457730;32;32664;-80
2022/01/23 05:17:00;;;;;;;;;;;;;;;0.28;50.83;100900.34;4444879;32;33937;-80
2022/01/23 05:19:28;;;;;;;;;;;;;;;0.31;50.94;100909.84;4460788;32;35120;-80
2022/01/23 05:24:47;;;;;;;;;;;;;;;-0.23;52.59;100918.69;4459278;32;33422;-81
2022/01/23 05:27:16;;;;;;;;;;;;;;;0.15;51.43;100921.75;4457922;32;33687;-80
2022/01/23 05:29:44;;;;;;;;;;;;;;;0.50;50.57;100929.25;4464741;32;36139;-80
2022/01/23 05:32:12;;;;;;;;;;;;;;;0.44;50.50;100932.94;4445441;32;34576;-81
2022/01/23 05:34:40;;;;;;;;;;;;;;;-0.06;52.00;100940.78;4420699;32;32614;-80
2022/01/23 05:37:08;;;;;;;;;;;;;;;-0.07;51.95;100941.69;4463699;32;34292;-80
2022/01/23 05:39:37;;;;;;;;;;;;;;;-0.05;52.19;100939.88;4449062;32;34955;-81
2022/01/23 05:42:08;;;;;;;;;;;;;;;-0.07;52.26;100942.53;4456693;32;35386;-79
2022/01/23 05:44:40;;;;;;;;;;;;;;;0.33;51.12;100944.66;4460427;32;33267;-80
2022/01/23 05:47:09;;;;;;;;;;;;;;;0.31;51.52;100949.13;4457561;32;33783;-80
2022/01/23 05:49:37;;;;;;;;;;;;;;;0.37;51.53;100948.87;4446535;32;35246;-80
2022/01/23 05:52:06;;;;;;;;;;;;;;;0.32;51.23;100959.50;4445966;32;34478;-81
2022/01/23 05:54:34;;;;;;;;;;;;;;;0.31;51.42;100957.81;4459024;32;33276;-81
2022/01/23 05:57:02;;;;;;;;;;;;;;;0.30;51.37;100960.50;4459950;32;33661;-80
2022/01/23 05:59:31;;;;;;;;;;;;;;;0.37;51.32;100959.34;4445420;32;34638;-80
2022/01/23 06:01:58;;;;;;;;;;;;;;;0.46;51.34;100966.88;4457925;32;34505;-80
2022/01/23 06:04:26;;;;;;;;;;;;;;;0.50;51.12;100965.87;4444033;32;32792;-81
2022/01/23 06:06:56;;;;;;;;;;;;;;;0.34;51.72;100975.16;4460935;32;33960;-81
2022/01/23 06:09:23;;;;;;;;;;;;;;;0.32;51.82;100972.59;4460857;32;34857;-80
2022/01/23 06:11:52;;;;;;;;;;;;;;;0.36;51.54;100983.81;4431999;32;32636;-80
2022/01/23 06:14:19;;;;;;;;;;;;;;;0.61;51.04;100984.69;4457760;32;32986;-80
2022/01/23 06:16:47;;;;;;;;;;;;;;;0.30;51.99;100990.13;4445306;32;32558;-81
2022/01/23 06:19:20;;;;;;;;;;;;;;;0.33;52.37;100989.16;4459762;32;34780;-80
2022/01/23 06:21:48;;;;;;;;;;;;;;;0.67;51.70;100993.19;4457571;32;34651;-80
2022/01/23 06:24:25;;;;;;;;;;;;;;;0.74;51.45;100999.91;4456476;32;33092;-81
2022/01/23 06:26:54;;;;;;;;;;;;;;;0.75;51.42;101003.41;4460032;32;33878;-80
2022/01/23 06:29:23;;;;;;;;;;;;;;;0.49;52.23;101009.53;4456656;32;35596;-81
2022/01/23 06:31:53;;;;;;;;;;;;;;;0.77;51.74;101012.91;4444968;32;34982;-81
2022/01/23 06:34:20;;;;;;;;;;;;;;;0.86;51.29;101009.94;4445201;32;32594;-81
2022/01/23 06:36:52;;;;;;;;;;;;;;;0.80;51.53;101006.69;4457966;32;33457;-80
2022/01/23 06:39:20;;;;;;;;;;;;;;;0.63;51.61;101006.44;4444445;32;34433;-81
2022/01/23 06:41:48;;;;;;;;;;;;;;;1.19;50.58;101003.50;4457249;32;34320;-81
2022/01/23 06:44:16;;;;;;;;;;;;;;;1.10;50.40;100998.59;4456570;32;33049;-81
2022/01/23 06:46:43;;;;;;;;;;;;;;;1.17;50.84;101004.47;4459411;32;34882;-81
2022/01/23 06:49:11;;;;;;;;;;;;;;;0.90;51.25;101005.47;4457888;32;36341;-82
2022/01/23 06:51:39;;;;;;;;;;;;;;;0.62;52.36;101004.72;4444793;32;34559;-80
2022/01/23 06:54:07;;;;;;;;;;;;;;;0.95;50.83;101011.41;4444993;32;31655;-79
2022/01/23 06:56:35;;;;;;;;;;;;;;;1.09;50.81;101009.13;4459572;32;33644;-79
2022/01/23 06:59:03;;;;;;;;;;;;;;;1.14;50.42;101007.19;4457927;32;34583;-79
2022/01/23 07:01:30;;;;;;;;;;;;;;;0.93;50.57;101013.19;4445146;32;34456;-80
2022/01/23 07:04:01;;;;;;;;;;;;;;;1.03;50.62;101001.50;4431623;32;33256;-81
2022/01/23 07:06:29;;;;;;;;;;;;;;;0.63;51.48;101003.81;4457520;32;32621;-82
2022/01/23 07:09:08;;;;;;;;;;;;;;;1.13;50.39;101000.25;4459126;32;35136;-82
2022/01/23 07:11:36;;;;;;;;;;;;;;;0.98;51.00;101001.69;4457648;32;35444;-80
2022/01/23 07:14:03;;;;;;;;;;;;;;;1.02;50.49;101011.13;4444572;32;32984;-80
2022/01/23 07:16:33;;;;;;;;;;;;;;;0.78;50.94;101003.28;4458369;32;32878;-80
2022/01/23 07:19:01;;;;;;;;;;;;;;;0.79;50.77;101002.38;4457449;32;33401;-80
2022/01/23 07:21:29;;;;;;;;;;;;;;;0.79;50.80;101007.63;4457478;32;34385;-79
2022/01/23 07:23:56;;;;;;;;;;;;;;;0.48;50.91;101010.44;4443816;32;32993;-80
2022/01/23 07:26:26;;;;;;;;;;;;;;;0.72;50.59;101013.97;4457847;32;33655;-80
2022/01/23 07:28:54;;;;;;;;;;;;;;;1.05;50.17;101020.63;4444458;32;35766;-81
2022/01/23 07:34:06;;;;;;;;;;;;;;;0.59;51.22;101005.69;4457212;32;32717;-80
2022/01/23 07:36:35;;;;;;;;;;;;;;;0.76;51.34;101011.19;4443038;32;32417;-79
2022/01/23 07:39:03;;;;;;;;;;;;;;;0.85;50.58;101008.25;4458433;32;35073;-79
2022/01/23 07:41:31;;;;;;;;;;;;;;;0.74;51.03;101018.25;4461250;32;34580;-79
2022/01/23 07:47:30;;;;;;;;;;;;;;;0.85;50.98;101015.25;4458497;32;32901;-81
2022/01/23 07:50:12;;;;;;;;;;;;;;;0.82;51.13;101000.50;4461697;32;34729;-81
2022/01/23 07:52:40;;;;;;;;;;;;;;;1.00;51.45;101009.47;4445454;32;33981;-81
2022/01/23 07:55:09;;;;;;;;;;;;;;;0.86;51.41;101007.34;4461183;32;33153;-80
2022/01/23 07:57:37;;;;;;;;;;;;;;;0.93;51.21;101014.06;4458345;32;33432;-81
2022/01/23 08:00:09;;;;;;;;;;;;;;;1.08;51.12;101018.78;4460731;32;34778;-79
2022/01/23 08:02:41;;;;;;;;;;;;;;;0.96;51.09;101021.81;4460400;32;34183;-81
2022/01/23 08:05:13;;;;;;;;;;;;;;;1.17;50.65;101020.19;4455053;32;32786;-79
2022/01/23 08:07:42;;;;;;;;;;;;;;;1.24;50.85;101024.28;4456573;32;34900;-80
2022/01/23 08:10:10;;;;;;;;;;;;;;;1.15;50.34;101032.50;4439377;32;36218;-81
2022/01/23 08:12:39;;;;;;;;;;;;;;;1.17;50.82;101026.28;4459188;32;33680;-81
2022/01/23 08:15:07;;;;;;;;;;;;;;;1.20;50.75;101022.69;4449122;32;33404;-81
2022/01/23 08:17:34;;;;;;;;;;;;;;;1.21;50.94;101020.00;4457992;32;33900;-81
2022/01/23 08:20:03;;;;;;;;;;;;;;;1.35;50.53;101027.37;4460177;32;35613;-80
2022/01/23 08:22:30;;;;;;;;;;;;;;;1.41;50.55;101038.47;4456354;32;33228;-81
2022/01/23 08:24:58;;;;;;;;;;;;;;;1.42;50.42;101032.31;4460085;32;32655;-82
2022/01/23 08:27:25;;;;;;;;;;;;;;;1.52;50.16;101033.69;4460714;32;33422;-81
2022/01/23 08:29:57;;;;;;;;;;;;;;;1.41;50.71;101041.09;4445862;32;33535;-80
2022/01/23 08:32:25;;;;;;;;;;;;;;;2.02;49.17;101039.59;4460732;32;34973;-81
2022/01/23 08:34:53;;;;;;;;;;;;;;;1.78;49.39;101044.03;4458313;32;33880;-81
2022/01/23 08:37:20;;;;;;;;;;;;;;;1.62;49.97;101047.31;4456952;32;34858;-81
2022/01/23 08:39:48;;;;;;;;;;;;;;;1.90;49.06;101053.19;4456484;32;34792;-82
2022/01/23 08:42:16;;;;;;;;;;;;;;;1.87;49.88;101053.34;4460135;32;34776;-81
2022/01/23 08:44:47;;;;;;;;;;;;;;;1.88;48.31;101063.75;4456391;32;33316;-80
2022/01/23 08:47:15;;;;;;;;;;;;;;;1.67;49.32;101061.97;4457407;32;33931;-81
2022/01/23 08:49:47;;;;;;;;;;;;;;;2.02;48.82;101053.59;4460214;32;34652;-81
2022/01/23 08:52:19;;;;;;;;;;;;;;;2.19;49.28;101061.66;4455933;32;35240;-81
2022/01/23 08:54:51;;;;;;;;;;;;;;;2.13;48.30;101061.88;4433833;32;31712;-80
2022/01/23 08:57:19;;;;;;;;;;;;;;;1.82;48.18;101053.50;4445870;32;34291;-81
2022/01/23 08:59:47;;;;;;;;;;;;;;;1.70;49.62;101058.38;4443968;32;33724;-81
2022/01/23 09:02:15;;;;;;;;;;;;;;;2.18;48.04;101046.78;4431870;32;32982;-80
2022/01/23 09:04:43;;;;;;;;;;;;;;;2.49;48.25;101049.88;4443675;32;32622;-79
2022/01/23 09:07:10;;;;;;;;;;;;;;;1.99;48.17;101052.84;4443577;32;34264;-82
2022/01/23 09:09:39;;;;;;;;;;;;;;;2.30;48.01;101059.44;4446095;32;36105;-81
2022/01/23 09:12:23;;;;;;;;;;;;;;;2.28;47.84;101073.53;4446260;32;32864;-80
2022/01/23 09:14:50;;;;;;;;;;;;;;;2.39;48.46;101082.69;4446799;32;33905;-81
2022/01/23 09:17:18;;;;;;;;;;;;;;;2.28;47.86;101079.66;4459731;32;34662;-82
2022/01/23 09:19:51;;;;;;;;;;;;;;;2.40;47.87;101075.66;4459012;32;34496;-80
2022/01/23 09:22:18;;;;;;;;;;;;;;;2.88;46.84;101070.09;4459192;32;34468;-79
2022/01/23 09:24:46;;;;;;;;;;;;;;;2.92;46.79;101087.41;4430171;32;32792;-81
2022/01/23 09:27:19;;;;;;;;;;;;;;;3.04;47.53;101076.38;4456486;32;34939;-81
2022/01/23 09:29:49;;;;;;;;;;;;;;;3.08;46.85;101077.09;4447517;32;33314;-81
2022/01/23 09:32:18;;;;;;;;;;;;;;;3.04;46.55;101070.28;4455529;32;33928;-80
2022/01/23 09:34:46;;;;;;;;;;;;;;;3.19;46.32;101082.72;4453080;32;32785;-82
2022/01/23 09:37:14;;;;;;;;;;;;;;;3.41;46.91;101073.00;4456497;32;34068;-82
2022/01/23 09:39:45;;;;;;;;;;;;;;;3.34;46.54;101077.66;4459635;32;34622;-82
2022/01/23 09:42:13;;;;;;;;;;;;;;;3.07;47.01;101084.16;4444665;32;34094;-82
2022/01/23 09:44:44;;;;;;;;;;;;;;;2.99;46.39;101085.38;4459691;32;33343;-82
2022/01/23 09:47:12;;;;;;;;;;;;;;;2.82;46.94;101082.59;4443097;32;33009;-80
2022/01/23 09:49:40;;;;;;;;;;;;;;;2.99;47.50;101088.00;4455176;32;35389;-82
2022/01/23 09:52:08;;;;;;;;;;;;;;;3.36;46.23;101083.72;4444512;32;33867;-81
2022/01/23 09:54:36;;;;;;;;;;;;;;;3.53;46.42;101088.22;4456131;32;34150;-82
2022/01/23 09:57:04;;;;;;;;;;;;;;;3.59;45.84;101078.25;4456123;32;34633;-81
2022/01/23 09:59:32;;;;;;;;;;;;;;;3.85;46.39;101080.56;4453275;32;36513;-82
2022/01/23 10:02:01;;;;;;;;;;;;;;;3.72;47.12;101089.94;4442992;32;33657;-81
2022/01/23 10:04:29;;;;;;;;;;;;;;;4.20;45.55;101079.75;4459785;32;33124;-81
2022/01/23 10:06:57;;;;;;;;;;;;;;;3.94;44.57;101079.25;4445149;32;33518;-82
2022/01/23 10:09:26;;;;;;;;;;;;;;;3.69;45.64;101079.53;4459856;32;35259;-81
2022/01/23 10:11:54;;;;;;;;;;;;;;;3.81;45.21;101076.38;4445073;32;35082;-82
2022/01/23 10:14:21;;;;;;;;;;;;;;;3.41;46.95;101076.47;4466134;32;33442;-81
2022/01/23 10:16:49;;;;;;;;;;;;;;;3.64;45.75;101072.78;4443823;32;32512;-82
2022/01/23 10:19:17;;;;;;;;;;;;;;;3.56;45.86;101070.50;4457728;32;35403;-80
2022/01/23 10:21:45;;;;;;;;;;;;;;;3.43;46.88;101073.78;4458344;32;35250;-81
2022/01/23 10:24:13;;;;;;;;;;;;;;;3.78;46.28;101071.22;4467182;32;33776;-82
2022/01/23 10:26:44;;;;;;;;;;;;;;;3.88;46.05;101064.59;4459358;32;33662;-82
2022/01/23 10:29:11;;;;;;;;;;;;;;;3.71;46.32;101064.53;4456507;32;36126;-81
2022/01/23 10:31:59;;;;;;;;;;;;;;;3.63;46.90;101063.19;4465833;32;35106;-80
2022/01/23 10:34:40;;;;;;;;;;;;;;;3.99;45.98;101059.69;4455401;32;34104;-80
2022/01/23 10:37:08;;;;;;;;;;;;;;;3.40;47.04;101060.75;4444195;32;34954;-80
2022/01/23 10:39:40;;;;;;;;;;;;;;;3.97;46.75;101056.28;4448104;32;34951;-81
2022/01/23 10:42:30;;;;;;;;;;;;;;;3.89;46.45;101068.09;4460916;32;32779;-80
2022/01/23 10:47:51;;;;;;;;;;;;;;;3.83;46.82;101069.25;4460651;32;33718;-80
2022/01/23 10:50:21;;;;;;;;;;;;;;;3.98;46.17;101057.97;4457120;32;35730;-82
2022/01/23 10:52:50;;;;;;;;;;;;;;;3.96;46.23;101065.09;4443888;32;34211;-81
2022/01/23 10:55:20;;;;;;;;;;;;;;;3.75;47.33;101063.47;4457257;32;32572;-82
2022/01/23 10:57:50;;;;;;;;;;;;;;;3.53;46.60;101060.16;4464202;32;34611;-81
2022/01/23 11:00:21;;;;;;;;;;;;;;;3.55;47.07;101060.06;4456020;32;35834;-82
2022/01/23 11:02:48;;;;;;;;;;;;;;;3.99;46.60;101054.41;4456677;32;34356;-82
2022/01/23 11:05:18;;;;;;;;;;;;;;;4.00;46.37;101056.16;4442570;32;32141;-80
2022/01/23 11:10:56;;;;;;;;;;;;;;;4.73;44.97;101046.31;4426952;26;36652;-80
2022/01/23 11:19:21;;;;;;;;;;;;;;;4.55;45.01;101055.16;4461580;32;33736;-79
2022/01/23 11:21:51;;;;;;;;;;;;;;;4.59;45.17;101058.50;4419374;32;34990;-81
2022/01/23 11:24:20;;;;;;;;;;;;;;;4.64;45.16;101056.50;4434916;32;33825;-79
2022/01/23 11:26:47;;;;;;;;;;;;;;;5.03;44.45;101060.59;4447399;32;33206;-79
2022/01/23 11:29:16;;;;;;;;;;;;;;;4.93;44.28;101061.13;4434245;32;34037;-80
2022/01/23 11:31:44;;;;;;;;;;;;;;;4.90;44.02;101061.31;4443607;32;35133;-79
2022/01/23 11:34:13;;;;;;;;;;;;;;;4.93;44.89;101056.72;4447413;32;34287;-79
2022/01/23 11:36:41;;;;;;;;;;;;;;;4.88;44.86;101061.38;4447774;32;32760;-80
2022/01/23 11:39:14;;;;;;;;;;;;;;;4.42;45.16;101048.78;4434255;32;34049;-79
2022/01/23 11:56:27;;;;;;;;;;;;;;;4.39;46.25;101056.00;4461972;32;34028;-79
2022/01/23 11:59:01;;;;;;;;;;;;;;;4.41;46.03;101052.34;4447562;32;32190;-79
2022/01/23 12:01:28;;;;;;;;;;;;;;;4.08;47.56;101056.63;4447286;32;33615;-79
2022/01/23 12:04:09;;;;;;;;;;;;;;;4.10;47.49;101048.66;4447383;32;34687;-79
2022/01/23 12:06:37;;;;;;;;;;;;;;;4.20;47.03;101049.91;4463372;32;34514;-79
2022/01/23 12:09:18;;;;;;;;;;;;;;;4.00;47.34;101035.09;4447381;32;33944;-79
2022/01/23 12:12:50;;;;;;;;;;;;;;;3.88;47.73;101040.06;4461999;32;33922;-79
2022/01/23 12:18:21;;;;;;;;;;;;;;;4.41;46.99;101033.06;4373966;32;34413;-80
2022/01/23 12:20:49;;;;;;;;;;;;;;;4.31;47.11;101031.78;4380865;32;33649;-81
2022/01/23 12:23:17;;;;;;;;;;;;;;;4.25;46.27;101032.12;4374132;32;33332;-79
2022/01/23 12:25:46;;;;;;;;;;;;;;;4.25;47.10;101040.03;4367293;32;33866;-79
2022/01/23 12:28:17;;;;;;;;;;;;;;;4.67;46.21;101033.47;4367338;32;34864;-79
2022/01/23 12:30:45;;;;;;;;;;;;;;;4.80;45.41;101031.91;4368943;32;32981;-80
2022/01/23 12:33:16;;;;;;;;;;;;;;;4.80;44.87;101016.09;4368956;32;34288;-80
2022/01/23 12:35:45;;;;;;;;;;;;;;;4.48;46.44;101029.19;4368178;32;35530;-80
2022/01/23 12:38:13;;;;;;;;;;;;;;;4.67;45.86;101029.97;4362249;32;33072;-81
2022/01/23 12:40:43;;;;;;;;;;;;;;;4.53;45.49;101028.03;4368099;32;34103;-79
2022/01/23 12:43:13;;;;;;;;;;;;;;;5.11;45.33;101020.63;4368945;32;34111;-78
2022/01/23 12:45:43;;;;;;;;;;;;;;;5.10;45.30;101025.03;4368799;32;34728;-79
2022/01/23 12:48:26;;;;;;;;;;;;;;;5.24;43.50;101016.41;4368368;32;36498;-80
2022/01/23 12:50:55;;;;;;;;;;;;;;;5.27;43.36;101011.81;4374175;32;34405;-81
2022/01/23 12:53:22;;;;;;;;;;;;;;;5.22;43.53;101013.00;4431506;32;33631;-79
2022/01/23 12:56:07;;;;;;;;;;;;;;;5.07;43.52;101014.66;4421632;32;34853;-81
2022/01/23 12:58:35;;;;;;;;;;;;;;;4.68;43.56;101008.81;4447703;32;34571;-79
2022/01/23 13:01:08;;;;;;;;;;;;;;;5.08;43.38;101008.44;4447372;32;32822;-80
2022/01/23 13:03:38;;;;;;;;;;;;;;;4.95;42.66;101004.75;4434962;32;33260;-79
2022/01/23 13:06:08;;;;;;;;;;;;;;;4.53;43.04;101012.22;4460721;32;35957;-79
2022/01/23 13:08:45;;;;;;;;;;;;;;;3.90;44.03;101015.41;4460246;32;33943;-78
2022/01/23 13:11:51;;;;;;;;;;;;;;;4.58;42.93;101012.00;4435361;32;34149;-80
2022/01/23 13:14:08;;;;;;;;;;;;;;;5.10;42.37;101013.66;4450588;32;33874;-79
2022/01/23 13:16:48;;;;;;;;;;;;;;;5.19;41.04;101021.09;4435155;32;35373;-80
2022/01/23 13:19:43;;;;;;;;;;;;;;;5.33;41.66;101019.41;4449366;32;34373;-80
2022/01/23 13:30:48;;;;;;;;;;;;;;;5.73;41.02;101017.19;4450480;32;36843;-81
2022/01/23 13:33:22;;;;;;;;;;;;;;;6.36;41.15;101012.72;4463430;32;33048;-80
2022/01/23 13:35:56;;;;;;;;;;;;;;;6.32;40.36;101013.81;4462234;32;33908;-81
2022/01/23 13:38:33;;;;;;;;;;;;;;;6.66;39.41;101003.88;4461248;32;34717;-82
2022/01/23 13:42:17;;;;;;;;;;;;;;;7.02;38.84;100999.03;4436433;32;33743;-81
2022/01/23 14:01:49;;;;;;;;;;;;;;;11.39;30.10;101013.16;4452334;32;34946;-81
2022/01/23 14:04:39;;;;;;;;;;;;;;;11.08;30.68;101009.47;4447485;32;35514;-83
2022/01/23 14:08:05;;;;;;;;;;;;;;;11.04;30.35;101008.00;4462554;32;34460;-82
2022/01/23 14:14:44;;;;;;;;;;;;;;;10.47;31.09;101004.44;4456619;32;34260;-81
2022/01/23 14:18:17;;;;;;;;;;;;;;;9.98;32.14;101001.84;4454131;32;35269;-82
2022/01/23 14:21:13;;;;;;;;;;;;;;;;;;;;;
2022/01/23 14:28:34;;;;;;;;;;;;;;;9.31;32.32;101009.41;4422656;32;33692;-81
2022/01/23 14:31:41;;;;;;;;;;;;;;;8.99;33.18;101005.50;4377669;32;36016;-81
2022/01/23 14:34:49;;;;;;;;;;;;;;;;;;;;;
2022/01/23 14:37:45;;;;;;;;;;;;;;;7.53;35.90;101010.81;4382430;32;32937;-82
2022/01/23 14:51:02;;;;;;;;;;;;;;;;;;;;;
2022/01/23 14:54:23;;;;;;;;;;;;;;;;;;;;;
2022/01/23 15:04:25;;;;;;;;;;;;;;;;;;;;;
2022/01/23 15:07:57;;;;;;;;;;;;;;;6.25;39.24;101075.91;4414193;32;34928;-83
2022/01/23 15:11:19;;;;;;;;;;;;;;;5.79;40.37;101085.50;4406286;32;35321;-82
2022/01/23 15:13:44;;;;;;;;;;;;;;;5.55;40.82;101084.16;4380947;32;35348;-82
2022/01/23 15:20:42;;;;;;;;;;;;;;;5.36;41.01;101084.37;4386256;32;32453;-82
2022/01/23 15:29:57;;;;;;;;;;;;;;;4.81;41.96;101101.31;4379268;32;32421;-81
2022/01/23 15:39:27;;;;;;;;;;;;;;;;;;;;;
2022/01/23 15:42:30;;;;;;;;;;;;;;;;;;;;;
2022/01/23 15:46:04;;;;;;;;;;;;;;;4.11;43.18;101098.63;4460296;32;33522;-82
2022/01/23 15:48:46;;;;;;;;;;;;;;;4.25;43.50;101098.81;4448884;32;35405;-81
2022/01/23 15:52:22;;;;;;;;;;;;;;;4.10;43.23;101107.44;4432914;32;35005;-82
2022/01/23 16:02:29;;;;;;;;;;;;;;;3.88;44.16;101116.41;4415200;32;34783;-82
2022/01/23 16:21:51;;;;;;;;;;;;;;;;;;;;;
2022/01/23 16:25:24;;;;;;;;;;;;;;;;;;;;;
2022/01/23 16:28:48;;;;;;;;;;;;;;;3.59;43.74;101135.31;4426121;32;35173;-82
2022/01/23 16:32:04;;;;;;;;;;;;;;;;;;;;;
2022/01/23 16:35:08;;;;;;;;;;;;;;;;;;;;;
2022/01/23 16:38:24;;;;;;;;;;;;;;;3.29;44.06;101140.12;4433073;32;33821;-82
2022/01/23 16:41:30;;;;;;;;;;;;;;;3.60;43.35;101137.00;4444586;32;36541;-83
2022/01/23 16:45:25;;;;;;;;;;;;;;;3.22;44.56;101149.19;4446394;32;34673;-82
2022/01/23 16:51:48;;;;;;;;;;;;;;;3.42;43.89;101151.81;4454100;32;34668;-82
2022/01/23 16:57:29;;;;;;;;;;;;;;;3.58;43.15;101152.03;4458898;32;34731;-82
2022/01/23 17:03:37;;;;;;;;;;;;;;;3.51;43.22;101164.56;4457948;32;33744;-82
2022/01/23 17:13:43;;;;;;;;;;;;;;;2.81;45.15;101165.84;4362583;32;33011;-82
2022/01/23 17:16:27;;;;;;;;;;;;;;;2.09;47.37;101157.41;4365780;32;32302;-82
2022/01/23 17:23:17;;;;;;;;;;;;;;;2.70;46.49;101164.56;4379050;32;37020;-82
2022/01/23 17:30:16;;;;;;;;;;;;;;;2.40;47.70;101180.69;4375964;32;34139;-81
2022/01/23 17:33:30;;;;;;;;;;;;;;;2.05;48.22;101173.34;4374576;32;35332;-82
2022/01/23 17:36:11;;;;;;;;;;;;;;;1.85;48.81;101179.31;4339927;33;34550;-83
2022/01/23 17:42:28;;;;;;;;;;;;;;;;;;;;;
2022/01/23 17:46:22;;;;;;;;;;;;;;;1.65;49.62;101188.81;4399794;32;33280;-83
2022/01/23 17:58:29;;;;;;;;;;;;;;;;;;;;;
2022/01/23 18:02:20;;;;;;;;;;;;;;;1.96;48.97;101215.66;4442689;32;33073;-82
2022/01/23 18:07:49;;;;;;;;;;;;;;;;;;;;;
2022/01/23 18:14:48;;;;;;;;;;;;;;;1.96;49.15;101219.13;4427351;32;32688;-82
2022/01/23 18:17:31;;;;;;;;;;;;;;;2.06;48.39;101222.28;4416687;32;32090;-84
2022/01/23 18:39:35;;;;;;;;;;;;;;;;;;;;;
2022/01/23 18:46:02;;;;;;;;;;;;;;;;;;;;;
2022/01/23 18:58:58;;;;;;;;;;;;;;;;;;;;;
2022/01/23 19:09:09;;;;;;;;;;;;;;;2.11;47.27;101268.44;4359115;32;32968;-83
2022/01/23 19:11:35;;;;;;;;;;;;;;;2.10;47.30;101272.00;4363033;32;33692;-82
2022/01/23 19:18:15;;;;;;;;;;;;;;;1.88;48.08;101284.16;4369944;32;35281;-83
2022/01/23 19:24:34;;;;;;;;;;;;;;;1.77;48.06;101281.06;4373789;32;34853;-81
2022/01/23 19:26:56;;;;;;;;;;;;;;;1.66;48.28;101284.94;4361375;32;35284;-82
2022/01/23 19:49:24;;;;;;;;;;;;;;;;;;;;;
2022/01/23 19:56:14;;;;;;;;;;;;;;;1.78;47.83;101339.63;4338511;32;34725;-80
2022/01/23 20:02:01;;;;;;;;;;;;;;;0.89;50.29;101347.78;4341596;32;34358;-79
2022/01/23 20:04:54;;;;;;;;;;;;;;;;;;;;;
2022/01/23 20:26:40;;;;;;;;;;;;;;;1.09;48.55;101363.75;4305230;33;34717;-81
2022/01/23 20:33:57;;;;;;;;;;;;;;;0.69;49.31;101375.47;4294002;33;32715;-81
2022/01/23 20:37:01;;;;;;;;;;;;;;;0.61;50.15;101378.31;4304489;33;32117;-83
2022/01/23 20:39:50;;;;;;;;;;;;;;;0.50;50.74;101376.91;4286132;33;32754;-80
2022/01/23 20:48:54;;;;;;;;;;;;;;;0.16;51.20;101374.38;4309378;33;33204;-81
2022/01/23 20:52:03;;;;;;;;;;;;;;;0.55;50.86;101385.47;4330343;32;33819;-80
2022/01/23 20:58:25;;;;;;;;;;;;;;;0.22;51.31;101395.12;4382746;32;34489;-81
2022/01/23 21:04:40;;;;;;;;;;;;;;;0.47;50.93;101413.66;4396706;32;34790;-80
2022/01/23 21:07:46;;;;;;;;;;;;;;;0.28;51.40;101415.06;4409545;32;34400;-81
2022/01/23 21:40:28;;;;;;;;;;;;;;;0.63;49.83;101455.06;4391678;32;31946;-81
2022/01/23 21:43:56;;;;;;;;;;;;;;;0.80;49.29;101451.97;4404501;32;34216;-82
2022/01/23 21:47:35;;;;;;;;;;;;;;;;;;;;;
2022/01/23 21:50:45;;;;;;;;;;;;;;;0.72;49.39;101460.06;4346704;32;35273;-81
2022/01/23 21:56:53;;;;;;;;;;;;;;;0.79;49.27;101463.34;4350931;32;33860;-82